KAL550 YSSY-YBBN
Flight info
| Callsign | KAL550 |
|---|---|
| Flight time | N/A |
| Altitude | 37000 |
| Route | OLSEM Y193 BANDA H252 GOMOL |
| Aircraft | B788/H-SDE1E2E3FGHIJ2J3J4J5M1RWXY/LB1D1 |
Departure
| Time | 2026-05-01 12:41 |
|---|---|
| Airport | Sydney Kingsford Smith International Airport (YSSY) |
Arrival
| Time | N/A |
|---|---|
| Airport | Brisbane International Airport (YBBN) |
| Time | Latitude | Longitude | Altitude | Speed | Heading |
|---|---|---|---|---|---|
| 2026-05-01 11:48 | -33.93950 | 151.16908 | 31 ft | 0 kts | 77° |
| 2026-05-01 12:24 | -33.93950 | 151.16907 | 31 ft | 0 kts | 85° |
| 2026-05-01 12:24 | -33.93948 | 151.16884 | 29 ft | 3 kts | 135° |
| 2026-05-01 12:24 | -33.93944 | 151.16876 | 30 ft | 0 kts | 166° |
| 2026-05-01 12:28 | -33.93945 | 151.16876 | 30 ft | 0 kts | 168° |
| 2026-05-01 12:29 | -33.93948 | 151.16875 | 29 ft | 1 kts | 181° |
| 2026-05-01 12:29 | -33.93955 | 151.16870 | 29 ft | 1 kts | 206° |
| 2026-05-01 12:29 | -33.93967 | 151.16835 | 31 ft | 6 kts | 248° |
| 2026-05-01 12:30 | -33.93995 | 151.16808 | 31 ft | 1 kts | 191° |
| 2026-05-01 12:30 | -33.94010 | 151.16810 | 31 ft | 3 kts | 172° |
| 2026-05-01 12:30 | -33.94029 | 151.16819 | 31 ft | 2 kts | 150° |
| 2026-05-01 12:31 | -33.94035 | 151.16829 | 31 ft | 1 kts | 123° |
| 2026-05-01 12:31 | -33.94042 | 151.16849 | 31 ft | 4 kts | 109° |
| 2026-05-01 12:31 | -33.94044 | 151.16883 | 31 ft | 3 kts | 83° |
| 2026-05-01 12:31 | -33.94038 | 151.16922 | 31 ft | 7 kts | 78° |
| 2026-05-01 12:32 | -33.94020 | 151.17005 | 31 ft | 13 kts | 74° |
| 2026-05-01 12:32 | -33.93947 | 151.17327 | 27 ft | 26 kts | 74° |
| 2026-05-01 12:32 | -33.93892 | 151.17554 | 29 ft | 27 kts | 74° |
| 2026-05-01 12:33 | -33.93864 | 151.17678 | 28 ft | 9 kts | 81° |
| 2026-05-01 12:33 | -33.93864 | 151.17723 | 29 ft | 2 kts | 114° |
| 2026-05-01 12:33 | -33.93873 | 151.17738 | 28 ft | 3 kts | 124° |
| 2026-05-01 12:33 | -33.93886 | 151.17757 | 30 ft | 1 kts | 137° |
| 2026-05-01 12:34 | -33.93906 | 151.17771 | 31 ft | 5 kts | 151° |
| 2026-05-01 12:34 | -33.93944 | 151.17790 | 32 ft | 6 kts | 161° |
| 2026-05-01 12:34 | -33.94018 | 151.17815 | 33 ft | 17 kts | 166° |
| 2026-05-01 12:34 | -33.94170 | 151.17856 | 34 ft | 27 kts | 168° |
| 2026-05-01 12:35 | -33.94374 | 151.17904 | 34 ft | 31 kts | 170° |
| 2026-05-01 12:35 | -33.94538 | 151.17895 | 33 ft | 17 kts | 174° |
| 2026-05-01 12:35 | -33.94637 | 151.17917 | 33 ft | 15 kts | 168° |
| 2026-05-01 12:35 | -33.94759 | 151.17947 | 31 ft | 20 kts | 167° |
| 2026-05-01 12:36 | -33.94867 | 151.17975 | 30 ft | 12 kts | 168° |
| 2026-05-01 12:36 | -33.94911 | 151.17986 | 31 ft | 4 kts | 168° |
| 2026-05-01 12:36 | -33.94950 | 151.17996 | 33 ft | 8 kts | 168° |
| 2026-05-01 12:36 | -33.95004 | 151.18011 | 34 ft | 8 kts | 166° |
| 2026-05-01 12:37 | -33.95060 | 151.18032 | 36 ft | 8 kts | 158° |
| 2026-05-01 12:37 | -33.95081 | 151.18051 | 36 ft | 3 kts | 135° |
| 2026-05-01 12:37 | -33.95086 | 151.18063 | 36 ft | 1 kts | 116° |
| 2026-05-01 12:37 | -33.95090 | 151.18080 | 36 ft | 3 kts | 99° |
| 2026-05-01 12:38 | -33.95092 | 151.18115 | 35 ft | 2 kts | 83° |
| 2026-05-01 12:38 | -33.95086 | 151.18178 | 34 ft | 12 kts | 81° |
| 2026-05-01 12:38 | -33.95063 | 151.18311 | 35 ft | 19 kts | 78° |
| 2026-05-01 12:38 | -33.95034 | 151.18473 | 36 ft | 20 kts | 78° |
| 2026-05-01 12:39 | -33.95005 | 151.18638 | 35 ft | 8 kts | 78° |
| 2026-05-01 12:39 | -33.95001 | 151.18665 | 35 ft | 0 kts | 82° |
| 2026-05-01 12:39 | -33.95001 | 151.18672 | 34 ft | 4 kts | 82° |
| 2026-05-01 12:39 | -33.94993 | 151.18746 | 34 ft | 13 kts | 85° |
| 2026-05-01 12:40 | -33.95014 | 151.18823 | 32 ft | 9 kts | 137° |
| 2026-05-01 12:40 | -33.95065 | 151.18855 | 33 ft | 6 kts | 160° |
| 2026-05-01 12:40 | -33.95082 | 151.18862 | 33 ft | 0 kts | 162° |
| 2026-05-01 12:41 | -33.95138 | 151.18881 | 32 ft | 38 kts | 167° |
| 2026-05-01 12:41 | -33.95734 | 151.19038 | 36 ft | 135 kts | 168° |
| 2026-05-01 12:41 | -33.96939 | 151.19348 | 53 ft | 215 kts | 163° |
| 2026-05-01 12:41 | -33.98524 | 151.19785 | 642 ft | 248 kts | 165° |
| 2026-05-01 12:42 | -34.00117 | 151.20454 | 1784 ft | 245 kts | 143° |
| 2026-05-01 12:42 | -34.01232 | 151.21926 | 2737 ft | 239 kts | 113° |
| 2026-05-01 12:42 | -34.01959 | 151.23737 | 3476 ft | 245 kts | 112° |
| 2026-05-01 12:42 | -34.02704 | 151.25620 | 4338 ft | 257 kts | 119° |
| 2026-05-01 12:43 | -34.03784 | 151.27426 | 5038 ft | 277 kts | 128° |
| 2026-05-01 12:43 | -34.05247 | 151.29133 | 5364 ft | 310 kts | 138° |
| 2026-05-01 12:43 | -34.07080 | 151.30799 | 5385 ft | 347 kts | 142° |
| 2026-05-01 12:43 | -34.08962 | 151.32609 | 5376 ft | 345 kts | 130° |
| 2026-05-01 12:44 | -34.10268 | 151.35024 | 5379 ft | 343 kts | 110° |
| 2026-05-01 12:44 | -34.10786 | 151.37804 | 5375 ft | 340 kts | 89° |
| 2026-05-01 12:44 | -34.09346 | 151.43021 | 5384 ft | 330 kts | 49° |
| 2026-05-01 12:45 | -34.05997 | 151.46799 | 5369 ft | 330 kts | 28° |
| 2026-05-01 12:45 | -34.03853 | 151.47796 | 5380 ft | 330 kts | 16° |
| 2026-05-01 12:45 | -34.01631 | 151.48506 | 5377 ft | 331 kts | 15° |
| 2026-05-01 12:46 | -33.99437 | 151.49187 | 5372 ft | 330 kts | 15° |
| 2026-05-01 12:46 | -33.97219 | 151.49912 | 5371 ft | 330 kts | 16° |
| 2026-05-01 12:46 | -33.94996 | 151.50655 | 5367 ft | 332 kts | 16° |
| 2026-05-01 12:46 | -33.92776 | 151.51385 | 5376 ft | 331 kts | 16° |
| 2026-05-01 12:47 | -33.90544 | 151.52111 | 5395 ft | 332 kts | 15° |
| 2026-05-01 12:47 | -33.88309 | 151.52841 | 5991 ft | 333 kts | 15° |
| 2026-05-01 12:47 | -33.86024 | 151.53588 | 6851 ft | 348 kts | 16° |
| 2026-05-01 12:47 | -33.83628 | 151.54373 | 7594 ft | 366 kts | 15° |
| 2026-05-01 12:48 | -33.81133 | 151.55186 | 8585 ft | 375 kts | 15° |
| 2026-05-01 12:48 | -33.78584 | 151.56017 | 9674 ft | 383 kts | 15° |
| 2026-05-01 12:48 | -33.75981 | 151.56866 | 10712 ft | 391 kts | 15° |
| 2026-05-01 12:48 | -33.73329 | 151.57731 | 11702 ft | 398 kts | 15° |
| 2026-05-01 12:49 | -33.70631 | 151.58609 | 12654 ft | 406 kts | 15° |
| 2026-05-01 12:49 | -33.67966 | 151.59477 | 12822 ft | 387 kts | 15° |
| 2026-05-01 12:49 | -33.65442 | 151.60336 | 12798 ft | 368 kts | 20° |
| 2026-05-01 12:49 | -33.63256 | 151.61703 | 12778 ft | 351 kts | 33° |
| 2026-05-01 12:50 | -33.61251 | 151.63264 | 12739 ft | 336 kts | 33° |
| 2026-05-01 12:50 | -33.59344 | 151.64786 | 12727 ft | 322 kts | 33° |
| 2026-05-01 12:50 | -33.57501 | 151.66243 | 12711 ft | 315 kts | 33° |
| 2026-05-01 12:50 | -33.55633 | 151.67704 | 12714 ft | 330 kts | 33° |
| 2026-05-01 12:51 | -33.53621 | 151.69279 | 12744 ft | 363 kts | 33° |
| 2026-05-01 12:51 | -33.51411 | 151.71016 | 13019 ft | 393 kts | 33° |
| 2026-05-01 12:51 | -33.46254 | 151.73707 | 14629 ft | 417 kts | 16° |
| 2026-05-01 12:52 | -33.43409 | 151.74542 | 15497 ft | 424 kts | 14° |
| 2026-05-01 12:52 | -33.37663 | 151.76345 | 17244 ft | 435 kts | 17° |
| 2026-05-01 12:52 | -33.34738 | 151.77347 | 18099 ft | 440 kts | 16° |
| 2026-05-01 12:53 | -33.28766 | 151.79230 | 19823 ft | 443 kts | 15° |
| 2026-05-01 12:53 | -33.25799 | 151.80193 | 20915 ft | 438 kts | 16° |
| 2026-05-01 12:53 | -33.22879 | 151.81155 | 22029 ft | 432 kts | 15° |
| 2026-05-01 12:54 | -33.19978 | 151.82091 | 22911 ft | 433 kts | 15° |
| 2026-05-01 12:54 | -33.14049 | 151.83985 | 23940 ft | 449 kts | 14° |
| 2026-05-01 12:54 | -33.11011 | 151.84968 | 24410 ft | 455 kts | 15° |
| 2026-05-01 12:55 | -33.04834 | 151.86952 | 25397 ft | 464 kts | 15° |
| 2026-05-01 12:55 | -33.01698 | 151.87957 | 25896 ft | 468 kts | 14° |
| 2026-05-01 12:55 | -32.98544 | 151.88970 | 26393 ft | 471 kts | 14° |
| 2026-05-01 12:56 | -32.95361 | 151.89991 | 26891 ft | 475 kts | 14° |
| 2026-05-01 12:56 | -32.92157 | 151.91018 | 27388 ft | 478 kts | 14° |
| 2026-05-01 12:56 | -32.88936 | 151.92046 | 27886 ft | 482 kts | 14° |
| 2026-05-01 12:56 | -32.85727 | 151.93070 | 28364 ft | 486 kts | 14° |
| 2026-05-01 12:57 | -32.82448 | 151.94121 | 28836 ft | 490 kts | 15° |
| 2026-05-01 12:57 | -32.75816 | 151.96236 | 29831 ft | 497 kts | 15° |
| 2026-05-01 12:57 | -32.72462 | 151.97304 | 30302 ft | 500 kts | 15° |
| 2026-05-01 12:58 | -32.65745 | 151.99445 | 30349 ft | 499 kts | 15° |
| 2026-05-01 12:59 | -32.55701 | 152.02635 | 30356 ft | 497 kts | 15° |
| 2026-05-01 12:59 | -32.45676 | 152.05814 | 30398 ft | 497 kts | 15° |
| 2026-05-01 13:00 | -32.38967 | 152.07934 | 31443 ft | 499 kts | 14° |
| 2026-05-01 13:00 | -32.35610 | 152.08997 | 31912 ft | 501 kts | 14° |
| 2026-05-01 13:01 | -32.28848 | 152.11132 | 32567 ft | 510 kts | 14° |
| 2026-05-01 13:01 | -32.25408 | 152.12216 | 32944 ft | 513 kts | 14° |
| 2026-05-01 13:01 | -32.19814 | 152.13978 | 33678 ft | 515 kts | 14° |
| 2026-05-01 13:07 | -31.69143 | 152.29851 | 35422 ft | 511 kts | 13° |
| 2026-05-01 13:07 | -31.65743 | 152.30915 | 35284 ft | 501 kts | 13° |
| 2026-05-01 13:08 | -31.59065 | 152.32956 | 35326 ft | 494 kts | 13° |
| 2026-05-01 13:08 | -31.55795 | 152.33985 | 35560 ft | 491 kts | 13° |
| 2026-05-01 13:08 | -31.52519 | 152.35011 | 36266 ft | 482 kts | 13° |
| 2026-05-01 13:08 | -31.49268 | 152.36012 | 36584 ft | 486 kts | 13° |
| 2026-05-01 13:09 | -31.45960 | 152.37027 | 36562 ft | 496 kts | 13° |
| 2026-05-01 13:09 | -31.42597 | 152.38070 | 36737 ft | 501 kts | 13° |
| 2026-05-01 13:09 | -31.39213 | 152.39123 | 36855 ft | 505 kts | 13° |
| 2026-05-01 13:10 | -31.32427 | 152.41216 | 36851 ft | 503 kts | 13° |
| 2026-05-01 13:10 | -31.25622 | 152.43316 | 36854 ft | 505 kts | 13° |
| 2026-05-01 13:11 | -31.18861 | 152.45399 | 36845 ft | 506 kts | 13° |
| 2026-05-01 13:11 | -31.12065 | 152.47489 | 36853 ft | 505 kts | 13° |
| 2026-05-01 13:12 | -31.05245 | 152.49583 | 36850 ft | 508 kts | 13° |
| 2026-05-01 13:12 | -30.98422 | 152.51676 | 36852 ft | 507 kts | 13° |
| 2026-05-01 13:13 | -30.91646 | 152.53752 | 36835 ft | 491 kts | 13° |
| 2026-05-01 13:13 | -30.86262 | 152.55398 | 36835 ft | 469 kts | 13° |
| 2026-05-01 13:13 | -30.83145 | 152.56350 | 36830 ft | 456 kts | 12° |
| 2026-05-01 13:14 | -30.79160 | 152.57614 | 36828 ft | 440 kts | 16° |
| 2026-05-01 13:14 | -30.74420 | 152.59352 | 36826 ft | 419 kts | 14° |
| 2026-05-01 13:15 | -30.68880 | 152.61337 | 36594 ft | 423 kts | 15° |
| 2026-05-01 13:15 | -30.66042 | 152.62376 | 36268 ft | 428 kts | 15° |
| 2026-05-01 13:15 | -30.63205 | 152.63410 | 35900 ft | 426 kts | 15° |
| 2026-05-01 13:15 | -30.60359 | 152.64436 | 35062 ft | 437 kts | 15° |
| 2026-05-01 13:16 | -30.57433 | 152.65492 | 34771 ft | 436 kts | 15° |
| 2026-05-01 13:16 | -30.54533 | 152.66545 | 34912 ft | 439 kts | 15° |
| 2026-05-01 13:16 | -30.51593 | 152.67608 | 34959 ft | 445 kts | 15° |
| 2026-05-01 13:17 | -30.39923 | 152.71821 | 34847 ft | 434 kts | 15° |
| 2026-05-01 13:18 | -30.34240 | 152.73837 | 35047 ft | 416 kts | 15° |
| 2026-05-01 13:18 | -30.31475 | 152.74858 | 35020 ft | 417 kts | 15° |
| 2026-05-01 13:18 | -30.25959 | 152.76853 | 34872 ft | 414 kts | 15° |
| 2026-05-01 13:19 | -30.20480 | 152.78812 | 34833 ft | 411 kts | 15° |
| 2026-05-01 13:19 | -30.17927 | 152.79734 | 34507 ft | 415 kts | 15° |
| 2026-05-01 13:20 | -30.16086 | 152.80395 | 34113 ft | 419 kts | 15° |
| 2026-05-01 13:20 | -30.13270 | 152.81401 | 33417 ft | 427 kts | 15° |
| 2026-05-01 13:20 | -30.10426 | 152.82420 | 32913 ft | 429 kts | 15° |
| 2026-05-01 13:21 | -30.04657 | 152.84488 | 31505 ft | 442 kts | 16° |
| 2026-05-01 13:21 | -30.01723 | 152.85536 | 30796 ft | 449 kts | 16° |
| 2026-05-01 13:21 | -29.98724 | 152.86609 | 30074 ft | 453 kts | 16° |
| 2026-05-01 13:21 | -29.95700 | 152.87690 | 29319 ft | 456 kts | 16° |
| 2026-05-01 13:22 | -29.92655 | 152.88778 | 28592 ft | 459 kts | 17° |
| 2026-05-01 13:22 | -29.89601 | 152.89867 | 27861 ft | 461 kts | 17° |
| 2026-05-01 13:22 | -29.86535 | 152.90960 | 27144 ft | 462 kts | 17° |
| 2026-05-01 13:22 | -29.83459 | 152.92056 | 26571 ft | 460 kts | 17° |
| 2026-05-01 13:23 | -29.80426 | 152.93136 | 26336 ft | 450 kts | 17° |
| 2026-05-01 13:23 | -29.77477 | 152.94186 | 26231 ft | 437 kts | 17° |
| 2026-05-01 13:23 | -29.74639 | 152.95195 | 26020 ft | 428 kts | 17° |
| 2026-05-01 13:23 | -29.71814 | 152.96198 | 25693 ft | 422 kts | 17° |
| 2026-05-01 13:24 | -29.69018 | 152.97192 | 25301 ft | 419 kts | 17° |
| 2026-05-01 13:24 | -29.66238 | 152.98179 | 24888 ft | 417 kts | 17° |
| 2026-05-01 13:24 | -29.63435 | 152.99173 | 24462 ft | 415 kts | 17° |
| 2026-05-01 13:25 | -29.57952 | 153.01117 | 23501 ft | 413 kts | 18° |
| 2026-05-01 13:25 | -29.55203 | 153.02092 | 22946 ft | 413 kts | 18° |
| 2026-05-01 13:25 | -29.52457 | 153.03064 | 22402 ft | 412 kts | 18° |
| 2026-05-01 13:25 | -29.49714 | 153.04034 | 21843 ft | 412 kts | 18° |
| 2026-05-01 13:26 | -29.46973 | 153.05003 | 21290 ft | 412 kts | 18° |
| 2026-05-01 13:26 | -29.44234 | 153.05971 | 20719 ft | 411 kts | 18° |
| 2026-05-01 13:26 | -29.41501 | 153.06936 | 20158 ft | 411 kts | 18° |
| 2026-05-01 13:26 | -29.38765 | 153.07902 | 19589 ft | 411 kts | 18° |
| 2026-05-01 13:27 | -29.36025 | 153.08869 | 19024 ft | 411 kts | 17° |
| 2026-05-01 13:27 | -29.33292 | 153.09833 | 18430 ft | 411 kts | 17° |
| 2026-05-01 13:27 | -29.27870 | 153.11742 | 17342 ft | 406 kts | 18° |
| 2026-05-01 13:28 | -29.22496 | 153.13634 | 17300 ft | 405 kts | 18° |
| 2026-05-01 13:28 | -29.19794 | 153.14586 | 17299 ft | 406 kts | 18° |
| 2026-05-01 13:29 | -29.14398 | 153.16482 | 17289 ft | 405 kts | 18° |
| 2026-05-01 13:29 | -29.09022 | 153.18370 | 17281 ft | 397 kts | 18° |
| 2026-05-01 13:30 | -28.98996 | 153.21886 | 17279 ft | 370 kts | 18° |
| 2026-05-01 13:31 | -28.94074 | 153.23609 | 17284 ft | 370 kts | 18° |
| 2026-05-01 13:31 | -28.86696 | 153.26189 | 17273 ft | 370 kts | 18° |
| 2026-05-01 13:32 | -28.81777 | 153.27906 | 17270 ft | 365 kts | 18° |
| 2026-05-01 13:33 | -28.74852 | 153.30322 | 17267 ft | 340 kts | 18° |
| 2026-05-01 13:33 | -28.70339 | 153.31894 | 17272 ft | 340 kts | 18° |
| 2026-05-01 13:34 | -28.65809 | 153.33472 | 17270 ft | 340 kts | 18° |
| 2026-05-01 13:34 | -28.61306 | 153.35037 | 17268 ft | 340 kts | 19° |
| 2026-05-01 13:35 | -28.56770 | 153.36614 | 17263 ft | 341 kts | 18° |
| 2026-05-01 13:35 | -28.54500 | 153.37400 | 17262 ft | 340 kts | 18° |
| 2026-05-01 13:35 | -28.49963 | 153.38976 | 17263 ft | 341 kts | 18° |
| 2026-05-01 13:36 | -28.47694 | 153.39762 | 17268 ft | 340 kts | 18° |
| 2026-05-01 13:36 | -28.45458 | 153.40537 | 17262 ft | 341 kts | 19° |
| 2026-05-01 13:36 | -28.40913 | 153.42114 | 17256 ft | 342 kts | 19° |
| 2026-05-01 13:37 | -28.38638 | 153.42901 | 17258 ft | 341 kts | 18° |
| 2026-05-01 13:37 | -28.36364 | 153.43686 | 17262 ft | 342 kts | 18° |
| 2026-05-01 13:37 | -28.34085 | 153.44471 | 17217 ft | 341 kts | 18° |
| 2026-05-01 13:37 | -28.31823 | 153.45254 | 17072 ft | 337 kts | 18° |
| 2026-05-01 13:38 | -28.27285 | 153.46825 | 17074 ft | 342 kts | 18° |
| 2026-05-01 13:38 | -28.25007 | 153.47611 | 17073 ft | 341 kts | 18° |
| 2026-05-01 13:38 | -28.22735 | 153.48394 | 16865 ft | 340 kts | 18° |
| 2026-05-01 13:39 | -28.20471 | 153.49174 | 16614 ft | 339 kts | 18° |
| 2026-05-01 13:39 | -28.18230 | 153.49940 | 16472 ft | 335 kts | 17° |
| 2026-05-01 13:39 | -28.15927 | 153.50211 | 16303 ft | 334 kts | 354° |
| 2026-05-01 13:39 | -28.13667 | 153.49812 | 16115 ft | 332 kts | 350° |
| 2026-05-01 13:40 | -28.11409 | 153.49280 | 15901 ft | 330 kts | 349° |
| 2026-05-01 13:40 | -28.09164 | 153.48778 | 15673 ft | 328 kts | 351° |
| 2026-05-01 13:40 | -28.06920 | 153.48333 | 15463 ft | 326 kts | 352° |
| 2026-05-01 13:40 | -28.04685 | 153.47884 | 15237 ft | 325 kts | 352° |
| 2026-05-01 13:41 | -28.02465 | 153.47420 | 15058 ft | 322 kts | 352° |
| 2026-05-01 13:41 | -28.00293 | 153.46964 | 15046 ft | 317 kts | 352° |
| 2026-05-01 13:41 | -27.98131 | 153.46517 | 15040 ft | 315 kts | 353° |
| 2026-05-01 13:41 | -27.95971 | 153.46073 | 15039 ft | 315 kts | 351° |
| 2026-05-01 13:42 | -27.93816 | 153.45626 | 15044 ft | 315 kts | 353° |
| 2026-05-01 13:42 | -27.91655 | 153.45183 | 15046 ft | 315 kts | 351° |
| 2026-05-01 13:42 | -27.89506 | 153.44735 | 15032 ft | 314 kts | 352° |
| 2026-05-01 13:42 | -27.87353 | 153.44290 | 15034 ft | 313 kts | 352° |
| 2026-05-01 13:43 | -27.85204 | 153.43847 | 15035 ft | 316 kts | 352° |
| 2026-05-01 13:43 | -27.83063 | 153.43411 | 14903 ft | 315 kts | 351° |
| 2026-05-01 13:43 | -27.80911 | 153.42955 | 14626 ft | 314 kts | 351° |
| 2026-05-01 13:43 | -27.78770 | 153.42514 | 14376 ft | 312 kts | 352° |
| 2026-05-01 13:44 | -27.76633 | 153.42081 | 14139 ft | 311 kts | 352° |
| 2026-05-01 13:44 | -27.74511 | 153.41644 | 13866 ft | 309 kts | 352° |
| 2026-05-01 13:44 | -27.72397 | 153.41206 | 13587 ft | 308 kts | 352° |
| 2026-05-01 13:44 | -27.70288 | 153.40772 | 13320 ft | 307 kts | 352° |
| 2026-05-01 13:45 | -27.68191 | 153.40340 | 13058 ft | 305 kts | 352° |
| 2026-05-01 13:45 | -27.66133 | 153.39917 | 12791 ft | 304 kts | 352° |
| 2026-05-01 13:45 | -27.64055 | 153.39489 | 12530 ft | 303 kts | 352° |
| 2026-05-01 13:45 | -27.61986 | 153.39049 | 12269 ft | 302 kts | 351° |
| 2026-05-01 13:46 | -27.59929 | 153.38579 | 12015 ft | 301 kts | 351° |
| 2026-05-01 13:46 | -27.57876 | 153.38112 | 11765 ft | 300 kts | 352° |
| 2026-05-01 13:46 | -27.55830 | 153.37660 | 11513 ft | 299 kts | 352° |
| 2026-05-01 13:46 | -27.53791 | 153.37210 | 11274 ft | 298 kts | 352° |
| 2026-05-01 13:47 | -27.51757 | 153.36758 | 11038 ft | 297 kts | 352° |
| 2026-05-01 13:47 | -27.49748 | 153.36309 | 10906 ft | 292 kts | 352° |
| 2026-05-01 13:47 | -27.47777 | 153.35871 | 10821 ft | 285 kts | 352° |
| 2026-05-01 13:47 | -27.45847 | 153.35443 | 10708 ft | 280 kts | 352° |
| 2026-05-01 13:48 | -27.43916 | 153.35017 | 10131 ft | 294 kts | 353° |
| 2026-05-01 13:48 | -27.41880 | 153.34568 | 9655 ft | 302 kts | 352° |
| 2026-05-01 13:48 | -27.39792 | 153.34103 | 9145 ft | 309 kts | 352° |
| 2026-05-01 13:48 | -27.37644 | 153.33626 | 8329 ft | 325 kts | 352° |
| 2026-05-01 13:49 | -27.35349 | 153.33142 | 7311 ft | 345 kts | 355° |
| 2026-05-01 13:49 | -27.32919 | 153.32722 | 6576 ft | 356 kts | 352° |
| 2026-05-01 13:49 | -27.30538 | 153.32202 | 6460 ft | 342 kts | 353° |
| 2026-05-01 13:49 | -27.28218 | 153.31739 | 6273 ft | 337 kts | 354° |
| 2026-05-01 13:50 | -27.25932 | 153.31226 | 5947 ft | 338 kts | 344° |
| 2026-05-01 13:50 | -27.24005 | 153.29554 | 4075 ft | 385 kts | 300° |
| 2026-05-01 13:50 | -27.23544 | 153.26578 | 3429 ft | 384 kts | 262° |
| 2026-05-01 13:50 | -27.24451 | 153.23867 | 3032 ft | 367 kts | 232° |
| 2026-05-01 13:51 | -27.26213 | 153.21918 | 2756 ft | 348 kts | 214° |
| 2026-05-01 13:51 | -27.28083 | 153.20329 | 2567 ft | 321 kts | 202° |
| 2026-05-01 13:51 | -27.30068 | 153.19683 | 2245 ft | 274 kts | 186° |
| 2026-05-01 13:51 | -27.31744 | 153.18943 | 1973 ft | 252 kts | 218° |
| 2026-05-01 13:52 | -27.32741 | 153.17411 | 1644 ft | 242 kts | 236° |
| 2026-05-01 13:52 | -27.33464 | 153.15787 | 1152 ft | 229 kts | 231° |
| 2026-05-01 13:52 | -27.34657 | 153.14790 | 677 ft | 210 kts | 196° |
| 2026-05-01 13:52 | -27.36010 | 153.14273 | 353 ft | 199 kts | 200° |
| 2026-05-01 13:53 | -27.37219 | 153.13603 | 99 ft | 189 kts | 208° |